This is the latest recevied weather packets stored in our database for station/object VA3ZFM-10. If no packets are shown the sender has not sent any weather packets the latest 10 day(s).
| Time | Temp. | Humidity | Pressure | Rain* | Wind** | Luminosity | Snow |
|---|---|---|---|---|---|---|---|
| 1777849935 | 7.78° C | 69% | 1006.2 hPa | 0 mm | - | - | - |
| 1777849631 | 8.33° C | 64% | 1006.1 hPa | 0 mm | - | - | - |
| 1777849328 | 8.89° C | 60% | 1006.3 hPa | 0 mm | - | - | - |
| 1777849025 | 8.89° C | 57% | 1006.2 hPa | 0 mm | - | - | - |
| 1777848726 | 9.44° C | 54% | 1006.1 hPa | 0 mm | - | - | - |
| 1777848423 | 10° C | 51% | 1005.9 hPa | 0 mm | - | - | - |
| 1777848121 | 10.56° C | 47% | 1006 hPa | 0 mm | - | - | - |
| 1777847819 | 10.56° C | 45% | 1005.7 hPa | 0 mm | - | - | - |
| 1777847515 | 10.56° C | 43% | 1005.9 hPa | 0 mm | - | - | - |
| 1777847212 | 10.56° C | 43% | 1005.7 hPa | 0 mm | - | - | - |
| 1777846910 | 11.11° C | 42% | 1006.1 hPa | 0 mm | - | - | - |
| 1777846608 | 10.56° C | 43% | 1005.7 hPa | 0 mm | - | - | - |
| 1777846305 | 11.11° C | 42% | 1005.9 hPa | 0 mm | - | - | - |
| 1777846002 | 11.11° C | 41% | 1005.9 hPa | 0 mm | - | - | - |
| 1777845698 | 11.11° C | 40% | 1006 hPa | 0 mm | - | - | - |
| 1777845396 | 11.11° C | 39% | 1005.8 hPa | 0 mm | - | - | - |
| 1777845092 | 11.11° C | 39% | 1006 hPa | 0 mm | - | - | - |
| 1777844791 | 11.11° C | 37% | 1006 hPa | 0 mm | - | - | - |
| 1777844486 | 11.67° C | 37% | 1005.7 hPa | 0 mm | - | - | - |
| 1777844186 | 11.67° C | 37% | 1005.9 hPa | 0 mm | - | - | - |
| 1777843882 | 11.67° C | 37% | 1005.6 hPa | 0 mm | - | - | - |
| 1777843580 | 11.67° C | 36% | 1005.6 hPa | 0 mm | - | - | - |
| 1777843277 | 11.67° C | 36% | 1005.7 hPa | 0 mm | - | - | - |
| 1777842974 | 11.67° C | 36% | 1005.9 hPa | 0 mm | - | - | - |
| 1777842670 | 12.22° C | 35% | 1005.7 hPa | 0 mm | - | - | - |
* Rain latest hour (hover to see other rain measurements)
** Current wind speed in m/s (hover to see current wind gust speed)